createdAt,value
2023-02-08T00:01:26.428Z,11.80
2023-02-08T00:04:12.161Z,12.38
2023-02-08T00:06:57.904Z,11.43
2023-02-08T00:09:44.918Z,11.20
2023-02-08T00:12:30.629Z,11.10
2023-02-08T00:15:16.449Z,11.68
2023-02-08T00:18:01.957Z,11.63
2023-02-08T00:20:47.843Z,11.20
2023-02-08T00:23:33.448Z,10.88
2023-02-08T00:26:20.498Z,12.07
2023-02-08T00:29:06.331Z,11.90
2023-02-08T00:31:53.481Z,11.38
2023-02-08T00:34:39.174Z,11.38
2023-02-08T00:37:25.212Z,12.05
2023-02-08T00:40:12.011Z,12.65
2023-02-08T00:43:02.908Z,12.77
2023-02-08T00:45:53.294Z,11.82
2023-02-08T00:48:38.967Z,12.03
2023-02-08T00:51:24.461Z,12.57
2023-02-08T00:54:14.506Z,11.90
2023-02-08T00:57:00.576Z,11.55
2023-02-08T00:59:47.730Z,11.88
2023-02-08T01:02:34.796Z,12.10
2023-02-08T01:05:20.643Z,10.85
2023-02-08T01:08:06.189Z,11.60
2023-02-08T01:10:51.811Z,11.85
2023-02-08T01:13:38.719Z,12.30
2023-02-08T01:16:27.715Z,12.32
2023-02-08T01:19:13.451Z,11.82
2023-02-08T01:21:59.233Z,11.48
2023-02-08T01:24:44.814Z,12.35
2023-02-08T01:27:30.628Z,11.60
2023-02-08T01:30:17.607Z,12.32
2023-02-08T01:33:04.795Z,11.98
2023-02-08T01:35:52.355Z,11.88
2023-02-08T01:38:38.534Z,12.30
2023-02-08T01:41:26.407Z,12.00
2023-02-08T01:44:49.748Z,11.45
2023-02-08T01:47:35.812Z,11.02
2023-02-08T01:50:26.989Z,11.57
2023-02-08T01:53:13.245Z,11.68
2023-02-08T01:56:04.028Z,10.98
2023-02-08T01:58:52.238Z,11.30
2023-02-08T02:01:40.328Z,11.57
2023-02-08T02:04:27.056Z,11.40
2023-02-08T02:07:14.393Z,11.02
2023-02-08T02:10:05.207Z,10.27
2023-02-08T02:12:52.181Z,10.63
2023-02-08T02:15:38.168Z,11.77
2023-02-08T02:18:27.096Z,11.25
2023-02-08T02:21:36.629Z,11.30
2023-02-08T02:24:42.999Z,10.68
2023-02-08T02:28:07.490Z,10.88
2023-02-08T02:31:29.726Z,11.70
2023-02-08T02:34:22.909Z,10.18
2023-02-08T02:37:19.958Z,10.85
2023-02-08T02:40:15.248Z,11.40
2023-02-08T02:43:29.726Z,11.57
2023-02-08T02:46:25.313Z,11.15
2023-02-08T02:49:18.356Z,10.80
2023-02-08T02:52:09.470Z,11.48
2023-02-08T02:55:00.350Z,11.52
2023-02-08T02:57:49.896Z,10.55
2023-02-08T03:00:35.896Z,11.23
2023-02-08T03:03:24.983Z,11.27
2023-02-08T03:06:19.280Z,10.85
2023-02-08T03:09:28.365Z,10.68
2023-02-08T03:12:29.663Z,11.18
2023-02-08T03:15:27.832Z,10.70
2023-02-08T03:18:30.437Z,10.63
2023-02-08T03:21:26.628Z,10.68
2023-02-08T03:24:28.005Z,10.82
2023-02-08T03:27:23.134Z,11.80
2023-02-08T03:30:15.891Z,11.85
2023-02-08T03:33:06.598Z,11.68
2023-02-08T03:35:57.425Z,12.20
2023-02-08T03:38:48.094Z,11.00
2023-02-08T03:41:38.591Z,11.23
2023-02-08T03:44:29.147Z,11.10
2023-02-08T03:47:18.683Z,8.50
2023-02-08T03:50:08.356Z,10.98
2023-02-08T03:52:55.279Z,11.57
2023-02-08T03:55:45.670Z,11.65
2023-02-08T03:58:35.243Z,9.25
2023-02-08T04:01:26.688Z,12.05
2023-02-08T04:04:15.373Z,12.48
2023-02-08T04:07:01.445Z,11.10
2023-02-08T04:09:47.222Z,10.88
2023-02-08T04:12:34.459Z,12.35
2023-02-08T04:15:20.053Z,12.15
2023-02-08T04:18:06.056Z,11.55
2023-02-08T04:20:51.646Z,11.38
2023-02-08T04:23:37.244Z,11.60
2023-02-08T04:26:23.119Z,11.73
2023-02-08T04:29:10.239Z,12.18
2023-02-08T04:31:55.802Z,11.38
2023-02-08T04:34:41.655Z,12.18
2023-02-08T04:37:27.306Z,12.02
2023-02-08T04:40:13.088Z,12.27
2023-02-08T04:42:59.358Z,11.93
2023-02-08T04:45:46.548Z,12.80
2023-02-08T04:48:32.594Z,12.85
2023-02-08T04:51:18.211Z,11.88
2023-02-08T04:54:03.907Z,12.35
2023-02-08T04:56:50.045Z,12.95
2023-02-08T04:59:35.643Z,13.65
2023-02-08T05:02:22.766Z,13.90
2023-02-08T05:05:08.639Z,12.30
2023-02-08T05:07:54.483Z,14.10
2023-02-08T05:10:44.944Z,12.80
2023-02-08T05:13:30.842Z,13.10
2023-02-08T05:16:17.192Z,12.63
2023-02-08T05:19:04.214Z,12.30
2023-02-08T05:21:50.183Z,12.35
2023-02-08T05:24:35.759Z,11.32
2023-02-08T05:27:22.269Z,12.00
2023-02-08T05:30:08.715Z,11.55
2023-02-08T05:32:54.619Z,12.45
2023-02-08T05:35:41.862Z,11.65
2023-02-08T05:38:27.618Z,11.55
2023-02-08T05:41:13.267Z,11.90
2023-02-08T05:43:59.035Z,11.70
2023-02-08T05:46:44.701Z,10.98
2023-02-08T05:49:30.263Z,11.35
2023-02-08T05:52:16.960Z,10.88
2023-02-08T05:55:02.583Z,11.48
2023-02-08T05:57:48.311Z,11.63
2023-02-08T06:00:34.412Z,11.55
2023-02-08T06:03:19.908Z,12.65
2023-02-08T06:06:06.518Z,12.30
2023-02-08T06:08:53.498Z,11.68
2023-02-08T06:11:38.949Z,12.55
2023-02-08T06:14:25.204Z,12.60
2023-02-08T06:17:11.094Z,12.55
2023-02-08T06:19:56.873Z,13.65
2023-02-08T06:22:42.867Z,13.57
2023-02-08T06:25:29.922Z,13.93
2023-02-08T06:28:15.871Z,13.70
2023-02-08T06:31:01.778Z,13.40
2023-02-08T06:33:47.862Z,12.15
2023-02-08T06:36:34.048Z,14.80
2023-02-08T06:39:21.226Z,14.40
2023-02-08T06:42:08.492Z,14.45
2023-02-08T06:44:55.873Z,13.75
2023-02-08T06:47:42.049Z,13.07
2023-02-08T06:50:27.943Z,13.90
2023-02-08T06:53:13.847Z,13.23
2023-02-08T06:55:59.815Z,13.05
2023-02-08T06:58:47.056Z,13.07
2023-02-08T07:01:32.761Z,12.68
2023-02-08T07:04:18.668Z,12.15
2023-02-08T07:07:04.393Z,12.82
2023-02-08T07:09:50.467Z,12.27
2023-02-08T07:12:37.097Z,11.20
2023-02-08T07:15:24.380Z,12.30
2023-02-08T07:18:10.100Z,11.88
2023-02-08T07:20:56.116Z,12.32
2023-02-08T07:23:42.329Z,12.35
2023-02-08T07:26:27.945Z,13.35
2023-02-08T07:29:13.645Z,12.07
2023-02-08T07:32:02.054Z,11.75
2023-02-08T07:34:47.659Z,12.73
2023-02-08T07:37:33.354Z,12.60
2023-02-08T07:40:19.302Z,12.20
2023-02-08T07:43:04.820Z,12.57
2023-02-08T07:46:06.905Z,15.40
2023-02-08T07:48:54.388Z,15.32
2023-02-08T07:51:40.334Z,17.63
2023-02-08T07:54:25.979Z,15.32
2023-02-08T07:57:11.901Z,14.77
2023-02-08T07:59:57.453Z,17.85
2023-02-08T08:02:43.320Z,16.75
2023-02-08T08:05:30.426Z,15.55
2023-02-08T08:08:15.983Z,13.00
2023-02-08T08:11:03.715Z,12.50
2023-02-08T08:13:49.608Z,11.35
2023-02-08T08:16:35.510Z,11.15
2023-02-08T08:19:21.012Z,12.20
2023-02-08T08:22:07.861Z,10.57
2023-02-08T08:24:54.648Z,11.82
2023-02-08T08:27:40.649Z,12.50
2023-02-08T08:30:26.159Z,11.52
2023-02-08T08:33:13.886Z,11.35
2023-02-08T08:36:00.377Z,12.00
2023-02-08T08:38:47.668Z,10.90
2023-02-08T08:41:33.658Z,12.25
2023-02-08T08:44:20.437Z,11.60
2023-02-08T08:47:06.083Z,13.20
2023-02-08T08:49:51.816Z,11.68
2023-02-08T08:52:37.336Z,11.68
2023-02-08T08:55:24.215Z,10.93
2023-02-08T08:58:10.002Z,11.30
2023-02-08T09:00:56.652Z,10.65
2023-02-08T09:03:42.381Z,10.23
2023-02-08T09:06:28.357Z,10.25
2023-02-08T09:09:14.354Z,10.20
2023-02-08T09:12:02.126Z,9.73
2023-02-08T09:14:47.620Z,10.38
2023-02-08T09:17:33.778Z,9.48
2023-02-08T09:20:19.679Z,9.65
2023-02-08T09:23:05.490Z,9.13
2023-02-08T09:25:51.495Z,9.77
2023-02-08T09:28:38.621Z,8.80
2023-02-08T09:31:26.598Z,8.95
2023-02-08T09:34:12.357Z,8.98
2023-02-08T09:36:57.954Z,8.23
2023-02-08T09:39:44.373Z,9.40
2023-02-08T09:42:40.025Z,8.77
2023-02-08T09:45:51.051Z,8.90
2023-02-08T09:48:45.379Z,8.20
2023-02-08T09:51:35.898Z,8.40
2023-02-08T09:54:26.459Z,9.03
2023-02-08T09:57:16.565Z,8.88
2023-02-08T10:00:07.318Z,9.85
2023-02-08T10:02:58.118Z,9.70
2023-02-08T10:05:44.101Z,10.57
2023-02-08T10:08:35.156Z,10.15
2023-02-08T10:11:35.161Z,8.48
2023-02-08T10:14:42.819Z,7.45
2023-02-08T10:17:51.645Z,7.47
2023-02-08T10:20:52.722Z,7.13
2023-02-08T10:23:49.085Z,7.80
2023-02-08T10:26:40.793Z,8.00
2023-02-08T10:29:41.465Z,6.93
2023-02-08T10:32:39.287Z,7.30
2023-02-08T10:35:28.816Z,7.55
2023-02-08T10:38:25.281Z,7.20
2023-02-08T10:41:18.586Z,7.93
2023-02-08T10:44:14.264Z,7.35
2023-02-08T10:47:11.811Z,7.60
2023-02-08T10:50:05.289Z,7.10
2023-02-08T10:52:51.281Z,7.15
2023-02-08T10:55:42.487Z,7.80
2023-02-08T10:58:28.618Z,7.65
2023-02-08T11:01:14.698Z,8.02
2023-02-08T11:04:02.201Z,7.20
2023-02-08T11:06:50.023Z,7.57
2023-02-08T11:09:35.412Z,7.40
2023-02-08T11:12:23.655Z,7.80
2023-02-08T11:15:23.317Z,8.10
2023-02-08T11:18:20.034Z,7.32
2023-02-08T11:21:08.279Z,7.38
2023-02-08T11:23:56.810Z,6.82
2023-02-08T11:26:43.628Z,7.00
2023-02-08T11:29:32.025Z,7.90
2023-02-08T11:32:19.849Z,7.20
2023-02-08T11:35:22.044Z,6.95
2023-02-08T11:38:19.413Z,7.75
2023-02-08T11:41:13.603Z,7.22
2023-02-08T11:44:02.474Z,6.60
2023-02-08T11:46:51.275Z,6.60
2023-02-08T11:49:39.581Z,6.85
2023-02-08T11:52:27.934Z,6.75
2023-02-08T11:55:24.198Z,6.40
2023-02-08T11:58:20.962Z,6.93
2023-02-08T12:01:18.797Z,7.20
2023-02-08T12:04:08.118Z,6.78
2023-02-08T12:07:21.154Z,6.85
2023-02-08T12:10:29.225Z,7.68
2023-02-08T12:13:42.161Z,7.10
2023-02-08T12:16:43.227Z,7.07
2023-02-08T12:20:04.290Z,5.80
2023-02-08T12:22:57.372Z,5.93
2023-02-08T12:25:52.364Z,6.00
2023-02-08T12:28:48.868Z,5.90
2023-02-08T12:31:57.535Z,6.30
2023-02-08T12:35:00.217Z,7.10
2023-02-08T12:38:13.177Z,6.03
2023-02-08T12:41:05.691Z,6.32
2023-02-08T12:44:02.351Z,4.90
2023-02-08T12:46:58.852Z,4.50
2023-02-08T12:50:09.203Z,5.00
2023-02-08T12:52:59.303Z,4.35
2023-02-08T12:55:46.973Z,3.65
2023-02-08T12:58:38.875Z,4.50
2023-02-08T13:01:29.344Z,4.32
2023-02-08T13:09:10.933Z,3.90
2023-02-08T13:20:36.769Z,3.13
2023-02-08T13:23:26.440Z,4.15
2023-02-08T13:26:15.854Z,3.97
2023-02-08T13:29:03.581Z,3.42
2023-02-08T13:31:52.514Z,3.42
2023-02-08T13:34:42.242Z,3.70
2023-02-08T13:37:31.548Z,3.78
2023-02-08T13:40:21.427Z,3.75
2023-02-08T13:43:34.521Z,3.70
2023-02-08T13:46:23.168Z,3.58
2023-02-08T13:49:43.735Z,3.88
2023-02-08T13:52:49.524Z,3.80
2023-02-08T13:55:55.257Z,3.25
2023-02-08T13:59:23.653Z,3.83
2023-02-08T14:02:27.048Z,3.28
2023-02-08T14:05:43.180Z,3.58
2023-02-08T14:08:33.226Z,3.50
2023-02-08T14:11:32.915Z,3.17
2023-02-08T14:14:23.341Z,3.30
2023-02-08T14:17:19.134Z,3.60
2023-02-08T14:22:54.716Z,3.90
2023-02-08T14:25:43.736Z,3.65
2023-02-08T14:28:34.106Z,3.70
2023-02-08T14:31:24.095Z,3.92
2023-02-08T14:37:29.478Z,3.90
2023-02-08T14:40:47.810Z,3.37
2023-02-08T14:43:35.893Z,3.53
2023-02-08T14:52:23.442Z,3.47
2023-02-08T14:55:17.964Z,3.65
2023-02-08T14:58:09.022Z,3.50
2023-02-08T15:06:58.378Z,4.07
2023-02-08T15:09:46.278Z,3.80
2023-02-08T15:18:19.807Z,2.90
2023-02-08T15:21:15.423Z,3.90
2023-02-08T15:38:05.645Z,4.15
2023-02-08T15:41:09.456Z,3.65
2023-02-08T15:46:48.065Z,4.00
2023-02-08T15:52:23.867Z,4.10
2023-02-08T15:55:15.719Z,3.50
2023-02-08T15:58:09.745Z,3.60
2023-02-08T16:00:57.187Z,3.42
2023-02-08T16:03:47.409Z,3.60
2023-02-08T16:06:38.496Z,3.38
2023-02-08T16:09:27.478Z,3.50
2023-02-08T16:12:21.028Z,3.70
2023-02-08T16:15:36.643Z,3.78
2023-02-08T16:18:40.738Z,4.80
2023-02-08T16:21:34.244Z,4.45
2023-02-08T16:24:22.119Z,5.38
2023-02-08T16:27:20.198Z,4.90
2023-02-08T16:30:14.833Z,4.65
2023-02-08T16:33:08.782Z,4.50
2023-02-08T16:36:01.927Z,4.93
2023-02-08T16:39:39.270Z,6.20
2023-02-08T16:42:33.884Z,5.22
2023-02-08T16:45:22.474Z,5.30
2023-02-08T16:48:28.862Z,5.20
2023-02-08T16:51:17.924Z,4.32
2023-02-08T16:54:07.572Z,4.18
2023-02-08T16:56:59.926Z,4.68
2023-02-08T16:59:45.948Z,5.45
2023-02-08T17:02:32.140Z,5.22
2023-02-08T17:05:21.824Z,4.93
2023-02-08T17:08:14.470Z,6.05
2023-02-08T17:11:00.400Z,6.50
2023-02-08T17:13:46.484Z,5.53
2023-02-08T17:16:33.296Z,5.78
2023-02-08T17:19:19.138Z,4.90
2023-02-08T17:22:06.774Z,5.20
2023-02-08T17:24:53.198Z,5.65
2023-02-08T17:27:38.975Z,5.05
2023-02-08T17:30:26.961Z,5.40
2023-02-08T17:33:18.546Z,4.95
2023-02-08T17:36:04.787Z,6.07
2023-02-08T17:38:52.251Z,5.07
2023-02-08T17:41:40.086Z,5.93
2023-02-08T17:44:26.002Z,5.70
2023-02-08T17:47:13.972Z,9.02
2023-02-08T17:49:59.944Z,8.25
2023-02-08T17:52:46.615Z,11.43
2023-02-08T17:55:33.596Z,10.15
2023-02-08T17:58:19.386Z,5.60
2023-02-08T18:01:06.502Z,5.78
2023-02-08T18:03:53.246Z,6.40
2023-02-08T18:06:39.396Z,5.63
2023-02-08T18:09:25.333Z,5.93
2023-02-08T18:12:13.641Z,6.05
2023-02-08T18:15:01.882Z,7.70
2023-02-08T18:17:48.117Z,6.45
2023-02-08T18:20:33.887Z,5.13
2023-02-08T18:23:19.562Z,6.03
2023-02-08T18:26:07.304Z,5.50
2023-02-08T18:28:54.891Z,6.15
2023-02-08T18:31:41.325Z,6.55
2023-02-08T18:34:27.835Z,5.88
2023-02-08T18:37:13.887Z,6.20
2023-02-08T18:39:59.903Z,5.82
2023-02-08T18:42:46.015Z,5.80
2023-02-08T18:45:33.488Z,5.90
2023-02-08T18:48:19.595Z,6.07
2023-02-08T18:51:07.499Z,6.60
2023-02-08T18:53:55.056Z,6.80
2023-02-08T18:56:43.087Z,7.60
2023-02-08T18:59:29.316Z,6.15
2023-02-08T19:02:20.989Z,5.88
2023-02-08T19:05:07.414Z,6.65
2023-02-08T19:07:53.426Z,6.90
2023-02-08T19:10:41.255Z,7.05
2023-02-08T19:13:27.405Z,7.28
2023-02-08T19:16:14.453Z,6.85
2023-02-08T19:19:04.230Z,6.65
2023-02-08T19:21:50.142Z,6.93
2023-02-08T19:24:36.180Z,6.72
2023-02-08T19:27:22.137Z,7.03
2023-02-08T19:30:11.801Z,6.80
2023-02-08T19:32:58.027Z,7.05
2023-02-08T19:35:45.649Z,9.63
2023-02-08T19:38:31.814Z,8.65
2023-02-08T19:41:20.636Z,9.38
2023-02-08T19:44:09.087Z,10.18
2023-02-08T19:46:56.373Z,8.60
2023-02-08T19:49:43.309Z,9.75
2023-02-08T19:52:33.626Z,9.70
2023-02-08T19:55:19.285Z,9.32
2023-02-08T19:58:05.175Z,8.98
2023-02-08T20:00:51.270Z,9.30
2023-02-08T20:03:37.283Z,9.30
2023-02-08T20:06:24.833Z,9.38
2023-02-08T20:09:15.791Z,9.63
2023-02-08T20:12:01.840Z,9.63
2023-02-08T20:14:47.459Z,8.73
2023-02-08T20:17:33.562Z,9.02
2023-02-08T20:20:19.789Z,8.52
2023-02-08T20:23:20.875Z,8.05
2023-02-08T20:26:11.907Z,8.32
2023-02-08T20:28:59.078Z,8.95
2023-02-08T20:31:47.655Z,8.35
2023-02-08T20:34:34.080Z,8.95
2023-02-08T20:37:21.113Z,10.20
2023-02-08T20:40:07.771Z,10.25
2023-02-08T20:42:55.021Z,10.88
2023-02-08T20:45:41.308Z,9.45
2023-02-08T20:48:27.588Z,8.70
2023-02-08T20:51:15.598Z,8.23
2023-02-08T20:54:02.670Z,9.68
2023-02-08T20:56:48.756Z,11.98
2023-02-08T20:59:36.429Z,11.43
2023-02-08T21:02:23.420Z,11.07
2023-02-08T21:05:09.290Z,11.77
2023-02-08T21:07:54.841Z,10.95
2023-02-08T21:10:40.499Z,10.73
2023-02-08T21:13:26.396Z,8.95
2023-02-08T21:16:14.619Z,7.05
2023-02-08T21:19:00.545Z,4.70
2023-02-08T21:21:49.573Z,5.60
2023-02-08T21:24:35.784Z,5.30
2023-02-08T21:27:24.310Z,4.75
2023-02-08T21:30:11.675Z,5.18
2023-02-08T21:32:59.314Z,5.35
2023-02-08T21:35:48.362Z,4.68
2023-02-08T21:38:34.664Z,5.20
2023-02-08T21:41:22.971Z,5.13
2023-02-08T21:44:10.218Z,5.00
2023-02-08T21:46:56.302Z,4.90
2023-02-08T21:50:02.308Z,5.00
2023-02-08T21:53:06.682Z,5.47
2023-02-08T21:55:52.356Z,4.72
2023-02-08T21:58:38.510Z,4.72
2023-02-08T22:01:24.468Z,4.63
2023-02-08T22:04:10.125Z,5.03
2023-02-08T22:06:56.949Z,4.95
2023-02-08T22:09:42.663Z,4.78
2023-02-08T22:12:28.226Z,4.90
2023-02-08T22:15:15.935Z,4.85
2023-02-08T22:18:03.371Z,4.80
2023-02-08T22:20:51.173Z,5.20
2023-02-08T22:23:38.297Z,4.70
2023-02-08T22:26:24.136Z,5.97
2023-02-08T22:29:09.825Z,5.13
2023-02-08T22:31:55.888Z,4.97
2023-02-08T22:34:41.809Z,5.50
2023-02-08T22:37:27.449Z,5.07
2023-02-08T22:40:14.388Z,5.30
2023-02-08T22:43:00.350Z,5.18
2023-02-08T22:45:55.574Z,5.90
2023-02-08T22:48:41.718Z,5.07
2023-02-08T22:51:27.377Z,5.20
2023-02-08T22:54:12.783Z,5.57
2023-02-08T22:56:59.827Z,5.18
2023-02-08T22:59:45.543Z,5.18
2023-02-08T23:02:31.346Z,4.60
2023-02-08T23:05:17.468Z,5.47
2023-02-08T23:08:03.380Z,5.28
2023-02-08T23:10:49.786Z,5.10
2023-02-08T23:13:37.084Z,4.93
2023-02-08T23:16:22.818Z,5.00
2023-02-08T23:19:13.693Z,5.15
2023-02-08T23:21:59.985Z,5.00
2023-02-08T23:24:45.499Z,5.38
2023-02-08T23:27:31.628Z,5.00
2023-02-08T23:30:19.196Z,5.43
2023-02-08T23:33:04.828Z,5.55
2023-02-08T23:35:50.406Z,4.93
2023-02-08T23:38:36.176Z,5.25
2023-02-08T23:41:23.166Z,5.07
2023-02-08T23:44:08.964Z,5.28
2023-02-08T23:46:55.862Z,6.10
2023-02-08T23:49:41.538Z,7.47
2023-02-08T23:52:27.098Z,5.65
2023-02-08T23:55:12.795Z,4.78
2023-02-08T23:57:58.738Z,5.60
